This is the latest recevied weather packets stored in our database for station/object OE1HTB-13. If no packets are shown the sender has not sent any weather packets the latest 10 day(s).
| Time | Temp. | Humidity | Pressure | Rain* | Wind** | Luminosity | Snow |
|---|---|---|---|---|---|---|---|
| 1777555872 | 15° C | 28% | 1028.5 hPa | 0 mm | - | 670 W/m² | - |
| 1777554971 | 14.44° C | 33% | 1028.5 hPa | 0 mm | - | 698 W/m² | - |
| 1777554071 | 13.89° C | 34% | 1028.7 hPa | 0 mm | - | 724 W/m² | - |
| 1777553171 | 14.44° C | 34% | 1028.9 hPa | 0 mm | - | 742 W/m² | - |
| 1777552273 | 13.89° C | 31% | 1029 hPa | 0 mm | - | 775 W/m² | - |
| 1777551371 | 15° C | 31% | 1029.3 hPa | 0 mm | - | 788 W/m² | - |
| 1777550471 | 13.89° C | 34% | 1029.3 hPa | 0 mm | - | 812 W/m² | - |
| 1777549571 | 14.44° C | 31% | 1029.6 hPa | 0 mm | - | 823 W/m² | - |
| 1777548671 | 13.89° C | 34% | 1029.6 hPa | 0 mm | - | 830 W/m² | - |
| 1777547772 | 13.33° C | 33% | 1029.6 hPa | 0 mm | - | 837 W/m² | - |
| 1777546871 | 12.78° C | 34% | 1029.8 hPa | 0 mm | - | 838 W/m² | - |
| 1777545970 | 12.22° C | 37% | 1029.8 hPa | 0 mm | - | 840 W/m² | - |
| 1777545076 | 11.67° C | 39% | 1030.1 hPa | 0 mm | - | 837 W/m² | - |
| 1777544175 | 12.22° C | 37% | 1030 hPa | 0 mm | - | 835 W/m² | - |
| 1777543276 | 11.67° C | 34% | 1030.1 hPa | 0 mm | - | 828 W/m² | - |
| 1777542374 | 11.11° C | 37% | 1030 hPa | 0 mm | - | 812 W/m² | - |
| 1777541474 | 11.67° C | 37% | 1030.2 hPa | 0 mm | - | 800 W/m² | - |
| 1777540574 | 10.56° C | 40% | 1030.3 hPa | 0 mm | - | 780 W/m² | - |
| 1777539675 | 10.56° C | 35% | 1030.4 hPa | 0 mm | - | 759 W/m² | - |
| 1777538774 | 10° C | 38% | 1030.3 hPa | 0 mm | - | 737 W/m² | - |
| 1777537875 | 10° C | 39% | 1030.5 hPa | 0 mm | - | 708 W/m² | - |
| 1777536973 | 9.44° C | 41% | 1030.5 hPa | 0 mm | - | 684 W/m² | - |
| 1777536073 | 9.44° C | 43% | 1030.5 hPa | 0 mm | - | 650 W/m² | - |
| 1777535173 | 8.33° C | 45% | 1030.7 hPa | 0 mm | - | 621 W/m² | - |
| 1777534273 | 9.44° C | 41% | 1030.6 hPa | 0 mm | - | 582 W/m² | - |
* Rain latest hour (hover to see other rain measurements)
** Current wind speed in m/s (hover to see current wind gust speed)